| time (UTC) | temp C | wind direction | speed KPH | gust KPH | rain 1hr cm | rain 24hr cm | rain mn cm | humidity % | barometer mb |
| 20260505034508 | 12 | 196 | 4.8 | 9.7 | 0.00 | 0.00 | 0.00 | 87 | 1014.4 |
| 20260505031505 | 12 | 203 | 3.2 | 11.3 | 0.00 | 0.00 | 0.00 | 85 | 1014.2 |
| 20260505030008 | 12 | 208 | 6.4 | 12.9 | 0.00 | 0.00 | 0.00 | 85 | 1014.3 |
| 20260505024507 | 13 | 183 | 8.0 | 16.1 | 0.00 | 0.00 | 0.00 | 85 | 1014.2 |
| 20260505023005 | 13 | 224 | 9.7 | 16.1 | 0.00 | 0.00 | 0.00 | 84 | 1014.1 |
| 20260505020008 | 13 | 240 | 8.0 | 16.1 | 0.00 | 0.00 | 0.00 | 83 | 1014.1 |
| 20260505014510 | 13 | 254 | 12.9 | 17.7 | 0.00 | 0.00 | 0.00 | 83 | 1014.2 |
| 20260505011505 | 14 | 278 | 9.7 | 19.3 | 0.00 | 0.00 | 0.00 | 81 | 1014.3 |
| 20260505010008 | 14 | 234 | 9.7 | 16.1 | 0.00 | 0.00 | 0.00 | 81 | 1014.2 |
| 20260505004503 | 14 | 264 | 8.0 | 19.3 | 0.00 | 0.00 | 0.00 | 80 | 1014.3 |
| 20260505003005 | 15 | 222 | 14.5 | 19.3 | 0.00 | 0.00 | 0.00 | 80 | 1014.3 |
| 20260505000006 | 15 | 250 | 8.0 | 19.3 | 0.00 | 0.00 | 0.00 | 80 | 1014.3 |
| 20260504234503 | 15 | 219 | 19.3 | 27.4 | 0.00 | 0.00 | 0.00 | 79 | 1014.3 |
| 20260504233006 | 15 | 217 | 17.7 | 24.1 | 0.00 | 0.00 | 0.00 | 79 | 1014.4 |
| 20260504231506 | 15 | 232 | 17.7 | 24.1 | 0.00 | 0.00 | 0.00 | 79 | 1014.3 |
| 20260504224503 | 15 | 263 | 9.7 | 17.7 | 0.00 | 0.00 | 0.00 | 78 | 1014.4 |
| 20260504221505 | 15 | 272 | 11.3 | 22.5 | 0.00 | 0.00 | 0.00 | 78 | 1014.4 |
| 20260504220008 | 16 | 222 | 12.9 | 22.5 | 0.00 | 0.00 | 0.00 | 79 | 1014.4 |
| 20260504214506 | 16 | 218 | 12.9 | 22.5 | 0.00 | 0.00 | 0.00 | 78 | 1014.5 |
| 20260504213004 | 16 | 268 | 11.3 | 22.5 | 0.00 | 0.00 | 0.00 | 76 | 1014.5 |
| 20260504211503 | 16 | 235 | 9.7 | 17.7 | 0.00 | 0.00 | 0.00 | 79 | 1014.5 |
| 20260504210009 | 16 | 225 | 9.7 | 17.7 | 0.00 | 0.00 | 0.00 | 78 | 1014.7 |
| 20260504204503 | 15 | 210 | 9.7 | 14.5 | 0.00 | 0.00 | 0.00 | 79 | 1014.9 |
| 20260504203003 | 15 | 145 | 4.8 | 14.5 | 0.00 | 0.00 | 0.00 | 80 | 1015.0 |
| 20260504201507 | 15 | 226 | 9.7 | 14.5 | 0.00 | 0.00 | 0.00 | 80 | 1015.2 |
| 20260504200006 | 15 | 188 | 6.4 | 14.5 | 0.00 | 0.00 | 0.00 | 81 | 1015.0 |
| 20260504194507 | 15 | 222 | 11.3 | 20.9 | 0.00 | 0.00 | 0.00 | 82 | 1015.1 |
| 20260504193004 | 15 | 209 | 8.0 | 11.3 | 0.00 | 0.00 | 0.00 | 81 | 1015.0 |
| 20260504191503 | 15 | 220 | 4.8 | 11.3 | 0.00 | 0.00 | 0.00 | 81 | 1015.1 |
| 20260504190006 | 14 | 153 | 3.2 | 12.9 | 0.00 | 0.00 | 0.00 | 82 | 1015.0 |
| 20260504184503 | 14 | 228 | 4.8 | 9.7 | 0.00 | 0.00 | 0.00 | 82 | 1015.0 |
| 20260504183003 | 14 | 212 | 4.8 | 9.7 | 0.00 | 0.00 | 0.00 | 82 | 1015.0 |
| 20260504181504 | 14 | 199 | 6.4 | 11.3 | 0.00 | 0.00 | 0.00 | 82 | 1014.8 |
| 20260504180005 | 14 | 185 | 4.8 | 11.3 | 0.00 | 0.00 | 0.00 | 83 | 1014.7 |
| 20260504174503 | 13 | 215 | 1.6 | 8.0 | 0.00 | 0.00 | 0.00 | 84 | 1014.6 |
| 20260504173003 | 13 | 215 | 6.4 | 11.3 | 0.00 | 0.00 | 0.00 | 84 | 1014.6 |
| 20260504171502 | 13 | 212 | 8.0 | 11.3 | 0.00 | 0.00 | 0.00 | 84 | 1014.7 |
| 20260504081504 | 12 | 354 | 4.8 | 6.4 | 0.00 | 0.00 | 0.00 | 88 | 1012.8 |
| 20260504050007 | 12 | 186 | 1.6 | 9.7 | 0.00 | 0.00 | 0.00 | 87 | 1011.2 |
| 20260504044505 | 12 | 204 | 8.0 | 16.1 | 0.00 | 0.00 | 0.00 | 86 | 1011.0 |
| 20260504043005 | 13 | 215 | 9.7 | 14.5 | 0.00 | 0.00 | 0.00 | 84 | 1010.8 |
| 20260504041505 | 14 | 227 | 11.3 | 17.7 | 0.00 | 0.00 | 0.00 | 82 | 1010.5 |
| 20260504040008 | 14 | 195 | 9.7 | 16.1 | 0.00 | 0.00 | 0.00 | 81 | 1010.2 |